createdAt,value
2023-05-09T00:00:51.128Z,24.17
2023-05-09T00:01:51.188Z,24.16
2023-05-09T00:02:51.252Z,24.16
2023-05-09T00:03:51.279Z,24.16
2023-05-09T00:04:51.274Z,24.16
2023-05-09T00:05:51.304Z,24.16
2023-05-09T00:06:51.303Z,24.16
2023-05-09T00:07:51.362Z,24.16
2023-05-09T00:08:51.374Z,24.15
2023-05-09T00:09:51.394Z,24.16
2023-05-09T00:10:51.419Z,24.15
2023-05-09T00:11:51.454Z,24.15
2023-05-09T00:12:51.490Z,24.16
2023-05-09T00:13:51.584Z,24.16
2023-05-09T00:14:51.514Z,24.15
2023-05-09T00:15:51.550Z,24.15
2023-05-09T00:16:51.664Z,24.15
2023-05-09T00:17:51.617Z,24.15
2023-05-09T00:18:51.581Z,24.15
2023-05-09T00:19:51.589Z,24.15
2023-05-09T00:20:51.630Z,24.14
2023-05-09T00:21:51.626Z,24.14
2023-05-09T00:22:51.668Z,24.14
2023-05-09T00:23:51.735Z,24.14
2023-05-09T00:24:51.761Z,24.14
2023-05-09T00:25:51.777Z,24.14
2023-05-09T00:26:51.826Z,24.14
2023-05-09T00:27:51.885Z,24.14
2023-05-09T00:28:51.904Z,24.14
2023-05-09T00:29:52.010Z,24.14
2023-05-09T00:30:51.979Z,24.14
2023-05-09T00:31:52.052Z,24.13
2023-05-09T00:32:52.115Z,24.13
2023-05-09T00:33:52.071Z,24.13
2023-05-09T00:34:52.117Z,24.13
2023-05-09T00:35:52.150Z,24.13
2023-05-09T00:36:52.202Z,24.13
2023-05-09T00:37:52.212Z,24.13
2023-05-09T00:38:52.251Z,24.13
2023-05-09T00:39:52.297Z,24.13
2023-05-09T00:40:52.332Z,24.12
2023-05-09T00:41:52.363Z,24.12
2023-05-09T00:42:52.422Z,24.13
2023-05-09T00:43:52.445Z,24.12
2023-05-09T00:44:52.482Z,24.13
2023-05-09T00:45:52.677Z,24.12
2023-05-09T00:46:52.566Z,24.12
2023-05-09T00:47:52.705Z,24.12
2023-05-09T00:48:52.681Z,24.12
2023-05-09T00:49:52.655Z,24.12
2023-05-09T00:50:52.698Z,24.12
2023-05-09T00:51:52.706Z,24.11
2023-05-09T00:52:52.755Z,24.12
2023-05-09T00:53:52.796Z,24.11
2023-05-09T00:54:52.844Z,24.12
2023-05-09T00:55:52.875Z,24.12
2023-05-09T00:56:52.915Z,24.11
2023-05-09T00:57:52.937Z,24.12
2023-05-09T00:58:52.961Z,24.11
2023-05-09T00:59:52.993Z,24.12
2023-05-09T01:00:53.015Z,24.10
2023-05-09T01:01:53.217Z,24.11
2023-05-09T01:02:53.309Z,24.10
2023-05-09T01:03:53.163Z,24.11
2023-05-09T01:04:53.143Z,24.10
2023-05-09T01:05:53.204Z,24.10
2023-05-09T01:06:53.211Z,24.11
2023-05-09T01:07:53.248Z,24.10
2023-05-09T01:08:53.282Z,24.10
2023-05-09T01:09:53.282Z,24.10
2023-05-09T01:10:53.284Z,24.10
2023-05-09T01:11:53.307Z,24.10
2023-05-09T01:12:53.405Z,24.11
2023-05-09T01:13:53.382Z,24.10
2023-05-09T01:14:53.383Z,24.10
2023-05-09T01:15:53.461Z,24.10
2023-05-09T01:16:53.457Z,24.09
2023-05-09T01:17:53.589Z,24.10
2023-05-09T01:18:53.499Z,24.10
2023-05-09T01:19:53.551Z,24.09
2023-05-09T01:20:53.535Z,24.09
2023-05-09T01:21:53.557Z,24.09
2023-05-09T01:22:53.554Z,24.10
2023-05-09T01:23:53.616Z,24.08
2023-05-09T01:24:53.638Z,24.09
2023-05-09T01:25:53.694Z,24.09
2023-05-09T01:26:53.715Z,24.09
2023-05-09T01:27:53.725Z,24.08
2023-05-09T01:28:53.769Z,24.09
2023-05-09T01:29:53.801Z,24.09
2023-05-09T01:30:53.815Z,24.08
2023-05-09T01:31:53.850Z,24.09
2023-05-09T01:32:53.926Z,24.09
2023-05-09T01:33:53.993Z,24.09
2023-05-09T01:34:53.960Z,24.08
2023-05-09T01:35:53.967Z,24.08
2023-05-09T01:36:54.008Z,24.08
2023-05-09T01:37:54.043Z,24.07
2023-05-09T01:38:54.079Z,24.08
2023-05-09T01:39:54.086Z,24.07
2023-05-09T01:40:54.110Z,24.08
2023-05-09T01:41:54.129Z,24.08
2023-05-09T01:42:54.161Z,24.08
2023-05-09T01:43:54.230Z,24.08
2023-05-09T01:44:54.243Z,24.07
2023-05-09T01:45:54.250Z,24.08
2023-05-09T01:46:54.356Z,24.08
2023-05-09T01:47:54.326Z,24.07
2023-05-09T01:48:54.335Z,24.07
2023-05-09T01:49:54.471Z,24.07
2023-05-09T01:50:54.398Z,24.07
2023-05-09T01:51:54.443Z,24.07
2023-05-09T01:52:54.439Z,24.07
2023-05-09T01:53:54.454Z,24.07
2023-05-09T01:54:54.458Z,24.07
2023-05-09T01:55:54.504Z,24.07
2023-05-09T01:56:54.531Z,24.07
2023-05-09T01:57:54.552Z,24.06
2023-05-09T01:58:54.580Z,24.06
2023-05-09T01:59:54.599Z,24.06
2023-05-09T02:00:54.648Z,24.06
2023-05-09T02:01:54.685Z,24.06
2023-05-09T02:02:54.820Z,24.05
2023-05-09T02:03:54.662Z,24.06
2023-05-09T02:04:54.678Z,24.06
2023-05-09T02:05:54.782Z,24.06
2023-05-09T02:06:54.715Z,24.07
2023-05-09T02:07:54.747Z,24.06
2023-05-09T02:08:54.788Z,24.06
2023-05-09T02:09:54.804Z,24.06
2023-05-09T02:10:54.845Z,24.05
2023-05-09T02:11:54.881Z,24.05
2023-05-09T02:12:54.929Z,24.06
2023-05-09T02:13:54.952Z,24.05
2023-05-09T02:14:54.969Z,24.05
2023-05-09T02:15:55.000Z,24.05
2023-05-09T02:16:55.118Z,24.05
2023-05-09T02:17:55.132Z,24.05
2023-05-09T02:18:55.115Z,24.05
2023-05-09T02:19:55.145Z,24.05
2023-05-09T02:20:55.184Z,24.04
2023-05-09T02:21:55.319Z,24.04
2023-05-09T02:22:55.247Z,24.04
2023-05-09T02:23:55.288Z,24.04
2023-05-09T02:24:55.334Z,24.05
2023-05-09T02:25:55.382Z,24.04
2023-05-09T02:26:55.429Z,24.04
2023-05-09T02:27:55.426Z,24.04
2023-05-09T02:28:55.471Z,24.04
2023-05-09T02:29:55.512Z,24.04
2023-05-09T02:30:55.517Z,24.04
2023-05-09T02:31:55.613Z,24.04
2023-05-09T02:32:55.606Z,24.04
2023-05-09T02:33:55.597Z,24.04
2023-05-09T02:34:55.585Z,24.04
2023-05-09T02:35:55.627Z,24.04
2023-05-09T02:36:55.632Z,24.04
2023-05-09T02:37:55.718Z,24.04
2023-05-09T02:38:55.639Z,24.04
2023-05-09T02:39:55.642Z,24.04
2023-05-09T02:40:55.634Z,24.03
2023-05-09T02:41:55.670Z,24.03
2023-05-09T02:42:55.644Z,24.03
2023-05-09T02:43:55.637Z,24.02
2023-05-09T02:44:55.651Z,24.04
2023-05-09T02:45:55.658Z,24.03
2023-05-09T02:46:55.644Z,24.02
2023-05-09T02:47:55.701Z,24.03
2023-05-09T02:48:55.666Z,24.03
2023-05-09T02:49:55.700Z,24.03
2023-05-09T02:50:55.710Z,24.04
2023-05-09T02:51:55.723Z,24.03
2023-05-09T02:52:55.719Z,24.02
2023-05-09T02:53:55.827Z,24.03
2023-05-09T02:54:55.727Z,24.03
2023-05-09T02:55:55.734Z,24.02
2023-05-09T02:56:55.766Z,24.02
2023-05-09T02:58:09.200Z,24.02
2023-05-09T02:58:56.754Z,24.02
2023-05-09T02:59:55.737Z,24.01
2023-05-09T03:00:55.742Z,24.02
2023-05-09T03:01:55.794Z,24.02
2023-05-09T03:02:55.823Z,24.02
2023-05-09T03:03:55.765Z,24.02
2023-05-09T03:04:55.716Z,24.02
2023-05-09T03:05:55.733Z,24.01
2023-05-09T03:06:55.688Z,24.01
2023-05-09T03:07:55.683Z,24.01
2023-05-09T03:08:55.702Z,24.02
2023-05-09T03:09:55.759Z,24.01
2023-05-09T03:10:55.677Z,24.01
2023-05-09T03:11:55.680Z,24.01
2023-05-09T03:12:55.737Z,24.01
2023-05-09T03:13:55.654Z,24.01
2023-05-09T03:14:55.650Z,24.01
2023-05-09T03:15:55.636Z,24.01
2023-05-09T03:16:55.630Z,24.01
2023-05-09T03:17:55.635Z,24.01
2023-05-09T03:18:55.604Z,24.00
2023-05-09T03:19:55.595Z,24.00
2023-05-09T03:20:55.607Z,24.00
2023-05-09T03:21:55.603Z,24.01
2023-05-09T03:22:55.590Z,24.01
2023-05-09T03:23:55.580Z,24.00
2023-05-09T03:24:55.582Z,24.01
2023-05-09T03:25:55.648Z,24.00
2023-05-09T03:26:55.579Z,24.01
2023-05-09T03:27:55.598Z,24.00
2023-05-09T03:28:55.534Z,24.00
2023-05-09T03:29:55.536Z,24.00
2023-05-09T03:30:55.512Z,24.00
2023-05-09T03:31:55.601Z,24.00
2023-05-09T03:32:55.549Z,23.99
2023-05-09T03:33:55.566Z,24.00
2023-05-09T03:34:55.544Z,24.00
2023-05-09T03:35:55.544Z,24.00
2023-05-09T03:36:55.549Z,23.99
2023-05-09T03:37:55.586Z,23.99
2023-05-09T03:38:55.559Z,23.99
2023-05-09T03:39:55.540Z,24.00
2023-05-09T03:40:55.558Z,23.99
2023-05-09T03:41:55.632Z,23.99
2023-05-09T03:42:55.533Z,23.99
2023-05-09T03:43:55.552Z,23.99
2023-05-09T03:44:55.546Z,24.00
2023-05-09T03:45:55.563Z,23.98
2023-05-09T03:46:55.594Z,23.99
2023-05-09T03:47:55.602Z,23.98
2023-05-09T03:48:55.568Z,23.99
2023-05-09T03:49:55.559Z,23.99
2023-05-09T03:50:55.591Z,23.98
2023-05-09T03:51:55.567Z,23.98
2023-05-09T03:52:55.579Z,23.99
2023-05-09T03:53:55.613Z,23.98
2023-05-09T03:54:55.620Z,23.98
2023-05-09T03:55:55.615Z,23.97
2023-05-09T03:56:55.633Z,23.98
2023-05-09T03:57:55.741Z,23.98
2023-05-09T03:58:55.646Z,23.98
2023-05-09T03:59:55.677Z,23.97
2023-05-09T04:00:55.663Z,23.99
2023-05-09T04:01:55.794Z,23.98
2023-05-09T04:02:55.705Z,23.99
2023-05-09T04:03:55.711Z,23.98
2023-05-09T04:04:55.681Z,23.98
2023-05-09T04:05:55.675Z,23.98
2023-05-09T04:06:55.666Z,23.98
2023-05-09T04:07:55.656Z,23.97
2023-05-09T04:08:55.680Z,23.97
2023-05-09T04:09:55.664Z,23.98
2023-05-09T04:10:55.660Z,23.98
2023-05-09T04:11:55.671Z,23.98
2023-05-09T04:12:55.659Z,23.98
2023-05-09T04:13:55.730Z,23.98
2023-05-09T04:14:55.645Z,23.97
2023-05-09T04:15:55.656Z,23.97
2023-05-09T04:16:55.761Z,23.97
2023-05-09T04:17:55.731Z,23.97
2023-05-09T04:18:55.655Z,23.97
2023-05-09T04:19:55.678Z,23.97
2023-05-09T04:20:55.696Z,23.97
2023-05-09T04:21:55.677Z,23.96
2023-05-09T04:22:55.667Z,23.97
2023-05-09T04:23:55.684Z,23.97
2023-05-09T04:24:55.681Z,23.97
2023-05-09T04:25:55.684Z,23.97
2023-05-09T04:26:55.673Z,23.97
2023-05-09T04:27:55.675Z,23.97
2023-05-09T04:28:55.723Z,23.96
2023-05-09T04:29:55.758Z,23.96
2023-05-09T04:30:55.739Z,23.97
2023-05-09T04:31:55.814Z,23.96
2023-05-09T04:32:55.680Z,23.96
2023-05-09T04:33:55.668Z,23.96
2023-05-09T04:34:55.653Z,23.97
2023-05-09T04:35:55.657Z,23.97
2023-05-09T04:36:55.663Z,23.97
2023-05-09T04:37:55.634Z,23.96
2023-05-09T04:38:55.650Z,23.97
2023-05-09T04:39:55.646Z,23.96
2023-05-09T04:40:55.642Z,23.96
2023-05-09T04:41:55.652Z,23.96
2023-05-09T04:42:55.622Z,23.96
2023-05-09T04:43:55.636Z,23.97
2023-05-09T04:44:55.601Z,23.96
2023-05-09T04:45:55.768Z,23.96
2023-05-09T04:46:55.645Z,23.97
2023-05-09T04:47:55.687Z,23.96
2023-05-09T04:48:55.650Z,23.97
2023-05-09T04:49:55.613Z,23.96
2023-05-09T04:50:55.612Z,23.96
2023-05-09T04:51:55.589Z,23.97
2023-05-09T04:52:55.606Z,23.96
2023-05-09T04:53:55.594Z,23.97
2023-05-09T04:54:55.586Z,23.97
2023-05-09T04:55:55.608Z,23.97
2023-05-09T04:57:55.602Z,23.96
2023-05-09T04:58:55.625Z,23.96
2023-05-09T04:59:55.593Z,23.97
2023-05-09T05:00:55.570Z,23.96
2023-05-09T05:01:55.681Z,23.97
2023-05-09T05:02:55.612Z,23.97
2023-05-09T05:03:55.578Z,23.97
2023-05-09T05:05:06.238Z,23.97
2023-05-09T05:05:56.581Z,23.96
2023-05-09T05:06:55.552Z,23.96
2023-05-09T05:07:55.556Z,23.96
2023-05-09T05:08:55.551Z,23.97
2023-05-09T05:09:55.529Z,23.96
2023-05-09T05:10:55.506Z,23.97
2023-05-09T05:12:01.672Z,23.97
2023-05-09T05:12:56.527Z,23.96
2023-05-09T05:13:55.510Z,23.97
2023-05-09T05:14:55.534Z,23.97
2023-05-09T05:15:55.538Z,23.97
2023-05-09T05:16:55.474Z,23.97
2023-05-09T05:17:55.591Z,23.97
2023-05-09T05:18:55.490Z,23.97
2023-05-09T05:19:55.464Z,23.97
2023-05-09T05:20:55.450Z,23.97
2023-05-09T05:21:55.435Z,23.97
2023-05-09T05:22:55.416Z,23.97
2023-05-09T05:23:55.441Z,23.97
2023-05-09T05:24:55.419Z,23.98
2023-05-09T05:25:55.427Z,23.98
2023-05-09T05:26:55.403Z,23.96
2023-05-09T05:27:55.375Z,23.94
2023-05-09T05:28:55.379Z,23.93
2023-05-09T05:29:55.375Z,23.91
2023-05-09T05:30:55.375Z,23.90
2023-05-09T05:31:55.463Z,23.84
2023-05-09T05:32:55.456Z,23.77
2023-05-09T05:33:55.438Z,23.72
2023-05-09T05:34:55.330Z,23.73
2023-05-09T05:35:55.325Z,23.72
2023-05-09T05:36:55.323Z,23.69
2023-05-09T05:37:55.311Z,23.59
2023-05-09T05:38:55.349Z,23.57
2023-05-09T05:39:55.310Z,23.59
2023-05-09T05:40:55.287Z,23.65
2023-05-09T05:41:55.296Z,23.71
2023-05-09T05:42:55.288Z,23.68
2023-05-09T05:43:55.340Z,23.68
2023-05-09T05:44:55.278Z,23.64
2023-05-09T05:45:55.245Z,23.58
2023-05-09T05:46:55.234Z,23.54
2023-05-09T05:47:55.311Z,23.48
2023-05-09T05:48:55.314Z,23.39
2023-05-09T05:49:55.450Z,23.30
2023-05-09T05:50:55.426Z,23.27
2023-05-09T05:51:55.468Z,23.19
2023-05-09T05:52:55.520Z,23.14
2023-05-09T05:53:55.592Z,23.09
2023-05-09T05:54:55.643Z,23.08
2023-05-09T05:55:55.702Z,23.07
2023-05-09T05:56:55.800Z,23.06
2023-05-09T05:57:55.846Z,23.05
2023-05-09T05:58:55.903Z,23.05
2023-05-09T05:59:55.960Z,23.01
2023-05-09T06:00:56.031Z,22.98
2023-05-09T06:01:56.142Z,22.94
2023-05-09T06:02:56.251Z,22.87
2023-05-09T06:03:56.306Z,22.89
2023-05-09T06:04:56.323Z,22.87
2023-05-09T06:05:56.374Z,22.87
2023-05-09T06:06:56.304Z,22.89
2023-05-09T06:07:56.374Z,22.90
2023-05-09T06:08:56.403Z,22.90
2023-05-09T06:09:56.497Z,22.92
2023-05-09T06:10:56.525Z,22.93
2023-05-09T06:11:56.566Z,22.90
2023-05-09T06:12:56.912Z,22.92
2023-05-09T06:13:56.852Z,22.94
2023-05-09T06:14:56.692Z,22.98
2023-05-09T06:16:01.946Z,22.96
2023-05-09T06:16:57.792Z,22.98
2023-05-09T06:17:56.800Z,22.99
2023-05-09T06:18:56.863Z,22.99
2023-05-09T06:19:56.721Z,23.02
2023-05-09T06:20:56.714Z,23.06
2023-05-09T06:21:56.778Z,23.10
2023-05-09T06:22:56.734Z,23.12
2023-05-09T06:24:56.703Z,23.22
2023-05-09T06:25:56.698Z,23.24
2023-05-09T06:26:56.681Z,23.30
2023-05-09T06:27:56.686Z,23.33
2023-05-09T06:28:56.681Z,23.38
2023-05-09T06:29:56.657Z,23.41
2023-05-09T06:30:56.687Z,23.44
2023-05-09T06:31:56.706Z,23.48
2023-05-09T06:32:56.670Z,23.34
2023-05-09T06:33:56.866Z,23.26
2023-05-09T06:34:56.633Z,23.19
2023-05-09T06:35:56.619Z,23.19
2023-05-09T06:36:56.631Z,23.25
2023-05-09T06:37:56.695Z,23.33
2023-05-09T06:38:56.859Z,23.40
2023-05-09T06:39:56.577Z,23.45
2023-05-09T06:40:56.579Z,23.50
2023-05-09T06:41:56.559Z,23.53
2023-05-09T06:42:56.885Z,23.56
2023-05-09T06:43:56.571Z,23.58
2023-05-09T06:44:56.589Z,23.58
2023-05-09T06:45:56.568Z,23.60
2023-05-09T06:46:56.533Z,23.61
2023-05-09T06:47:56.899Z,23.63
2023-05-09T06:48:56.518Z,23.66
2023-05-09T06:49:56.517Z,23.67
2023-05-09T06:50:56.513Z,23.67
2023-05-09T06:51:56.510Z,23.68
2023-05-09T06:52:56.898Z,23.69
2023-05-09T06:53:56.572Z,23.71
2023-05-09T06:54:56.484Z,23.74
2023-05-09T06:55:56.488Z,23.75
2023-05-09T06:56:56.642Z,23.77
2023-05-09T06:57:56.607Z,23.79
2023-05-09T06:58:56.984Z,23.79
2023-05-09T06:59:56.433Z,23.77
2023-05-09T07:00:56.584Z,23.77
2023-05-09T07:01:56.580Z,23.77
2023-05-09T07:02:56.441Z,23.77
2023-05-09T07:03:56.411Z,23.79
2023-05-09T07:04:56.431Z,23.82
2023-05-09T07:05:56.403Z,23.83
2023-05-09T07:06:56.398Z,23.87
2023-05-09T07:07:56.392Z,23.93
2023-05-09T07:08:56.386Z,23.96
2023-05-09T07:10:07.351Z,24.01
2023-05-09T07:10:57.377Z,24.04
2023-05-09T07:11:56.366Z,24.09
2023-05-09T07:12:56.384Z,24.12
2023-05-09T07:13:56.377Z,24.16
2023-05-09T07:14:56.331Z,24.19
2023-05-09T07:15:56.375Z,24.23
2023-05-09T07:17:05.222Z,24.25
2023-05-09T07:17:57.370Z,24.29
2023-05-09T07:18:56.397Z,24.30
2023-05-09T07:19:56.312Z,24.34
2023-05-09T07:20:56.297Z,24.38
2023-05-09T07:21:56.274Z,24.41
2023-05-09T07:22:56.297Z,24.43
2023-05-09T07:23:56.405Z,24.45
2023-05-09T07:24:56.253Z,24.47
2023-05-09T07:25:56.357Z,24.48
2023-05-09T07:26:56.348Z,24.52
2023-05-09T07:27:56.385Z,24.53
2023-05-09T07:28:56.902Z,24.53
2023-05-09T07:29:56.501Z,24.55
2023-05-09T07:30:56.526Z,24.59
2023-05-09T07:31:56.591Z,24.62
2023-05-09T07:32:56.748Z,24.65
2023-05-09T07:33:56.908Z,24.68
2023-05-09T07:34:56.733Z,24.70
2023-05-09T07:35:56.789Z,24.72
2023-05-09T07:36:56.818Z,24.74
2023-05-09T07:37:56.857Z,24.76
2023-05-09T07:38:56.909Z,24.79
2023-05-09T07:39:56.938Z,24.81
2023-05-09T07:40:56.985Z,24.82
2023-05-09T07:41:57.152Z,24.83
2023-05-09T07:42:57.091Z,24.83
2023-05-09T07:43:57.098Z,24.83
2023-05-09T07:44:57.105Z,24.84
2023-05-09T07:45:57.195Z,24.84
2023-05-09T07:46:57.176Z,24.86
2023-05-09T07:47:57.263Z,24.88
2023-05-09T07:48:57.277Z,24.89
2023-05-09T07:49:57.292Z,24.90
2023-05-09T07:50:57.288Z,24.92
2023-05-09T07:51:57.332Z,24.93
2023-05-09T07:52:57.366Z,24.95
2023-05-09T07:53:57.400Z,24.96
2023-05-09T07:54:57.405Z,24.97
2023-05-09T07:55:57.404Z,24.99
2023-05-09T07:56:57.419Z,25.00
2023-05-09T07:57:57.526Z,25.01
2023-05-09T07:58:57.474Z,25.02
2023-05-09T07:59:57.911Z,25.02
2023-05-09T08:00:57.533Z,25.03
2023-05-09T08:01:57.569Z,25.05
2023-05-09T08:02:57.597Z,25.07
2023-05-09T08:03:57.618Z,25.08
2023-05-09T08:04:57.567Z,25.08
2023-05-09T08:05:57.584Z,25.10
2023-05-09T08:06:57.642Z,25.11
2023-05-09T08:07:57.608Z,25.12
2023-05-09T08:08:57.598Z,25.13
2023-05-09T08:09:57.653Z,25.14
2023-05-09T08:10:57.627Z,25.16
2023-05-09T08:11:57.630Z,25.17
2023-05-09T08:12:57.697Z,25.18
2023-05-09T08:13:57.744Z,25.19
2023-05-09T08:14:57.659Z,25.21
2023-05-09T08:15:57.666Z,25.22
2023-05-09T08:16:57.650Z,25.20
2023-05-09T08:17:57.681Z,25.22
2023-05-09T08:18:57.928Z,25.23
2023-05-09T08:19:57.669Z,25.24
2023-05-09T08:20:57.651Z,25.25
2023-05-09T08:21:57.684Z,25.27
2023-05-09T08:22:57.689Z,25.27
2023-05-09T08:23:57.903Z,25.28
2023-05-09T08:24:57.692Z,25.29
2023-05-09T08:25:57.682Z,25.30
2023-05-09T08:26:57.718Z,25.31
2023-05-09T08:27:57.684Z,25.30
2023-05-09T08:28:57.689Z,25.29
2023-05-09T08:29:57.703Z,25.29
2023-05-09T08:30:57.897Z,25.27
2023-05-09T08:31:57.811Z,25.26
2023-05-09T08:32:57.764Z,25.24
2023-05-09T08:33:57.788Z,25.22
2023-05-09T08:34:57.778Z,25.19
2023-05-09T08:35:57.967Z,25.17
2023-05-09T08:36:57.797Z,25.14
2023-05-09T08:37:57.848Z,25.09
2023-05-09T08:38:57.877Z,25.03
2023-05-09T08:39:57.918Z,24.99
2023-05-09T08:40:57.922Z,25.01
2023-05-09T08:41:57.940Z,25.03
2023-05-09T08:42:57.958Z,25.05
2023-05-09T08:43:58.433Z,25.08
2023-05-09T08:44:58.010Z,25.12
2023-05-09T08:45:58.244Z,25.16
2023-05-09T08:46:58.148Z,25.19
2023-05-09T08:47:58.096Z,25.21
2023-05-09T08:48:58.418Z,25.23
2023-05-09T08:49:58.073Z,25.25
2023-05-09T08:50:58.076Z,25.27
2023-05-09T08:51:58.090Z,25.29
2023-05-09T08:52:58.101Z,25.30
2023-05-09T08:53:58.434Z,25.30
2023-05-09T08:54:58.114Z,25.31
2023-05-09T08:55:58.214Z,25.31
2023-05-09T08:56:58.117Z,25.32
2023-05-09T08:57:58.142Z,25.31
2023-05-09T08:58:58.139Z,25.32
2023-05-09T08:59:58.127Z,25.33
2023-05-09T09:00:58.130Z,25.33
2023-05-09T09:01:58.256Z,25.33
2023-05-09T09:02:58.192Z,25.32
2023-05-09T09:03:58.161Z,25.32
2023-05-09T09:04:58.170Z,25.32
2023-05-09T09:05:58.244Z,25.32
2023-05-09T09:06:58.165Z,25.32
2023-05-09T09:07:58.158Z,25.32
2023-05-09T09:08:58.161Z,25.32
2023-05-09T09:09:58.150Z,25.33
2023-05-09T09:10:58.148Z,25.32
2023-05-09T09:11:58.154Z,25.33
2023-05-09T09:12:58.188Z,25.32
2023-05-09T09:13:58.429Z,25.33
2023-05-09T09:14:58.165Z,25.32
2023-05-09T09:15:58.231Z,25.32
2023-05-09T09:16:58.210Z,25.33
2023-05-09T09:17:58.252Z,25.31
2023-05-09T09:18:58.891Z,25.32
2023-05-09T09:19:58.144Z,25.31
2023-05-09T09:20:58.163Z,25.30
2023-05-09T09:21:58.175Z,25.30
2023-05-09T09:22:58.156Z,25.30
2023-05-09T09:23:58.448Z,25.31
2023-05-09T09:24:58.167Z,25.31
2023-05-09T09:25:59.730Z,25.29
2023-05-09T09:26:58.173Z,25.28
2023-05-09T09:27:58.178Z,25.29
2023-05-09T09:28:58.448Z,25.26
2023-05-09T09:29:58.209Z,25.20
2023-05-09T09:30:58.236Z,25.04
2023-05-09T09:31:58.305Z,25.00
2023-05-09T09:32:58.308Z,25.02
2023-05-09T09:33:58.584Z,25.04
2023-05-09T09:34:58.316Z,25.04
2023-05-09T09:35:58.366Z,25.05
2023-05-09T09:36:59.936Z,25.08
2023-05-09T09:37:59.869Z,25.10
2023-05-09T09:38:58.413Z,25.13
2023-05-09T09:39:58.430Z,25.15
2023-05-09T09:40:58.457Z,25.18
2023-05-09T09:41:58.475Z,25.19
2023-05-09T09:42:58.485Z,25.21
2023-05-09T09:43:59.019Z,25.23
2023-05-09T09:44:58.484Z,25.24
2023-05-09T09:45:58.601Z,25.26
2023-05-09T09:46:58.507Z,25.27
2023-05-09T09:47:59.039Z,25.28
2023-05-09T09:48:58.971Z,25.27
2023-05-09T09:49:58.572Z,25.28
2023-05-09T09:50:58.542Z,25.28
2023-05-09T09:51:58.538Z,25.29
2023-05-09T09:52:58.564Z,25.30
2023-05-09T09:53:58.572Z,25.30
2023-05-09T09:54:58.553Z,25.32
2023-05-09T09:55:58.604Z,25.34
2023-05-09T09:56:58.529Z,25.34
2023-05-09T09:57:58.534Z,25.35
2023-05-09T09:58:58.536Z,25.35
2023-05-09T09:59:58.523Z,25.36
2023-05-09T10:00:58.563Z,25.35
2023-05-09T10:01:58.588Z,25.35
2023-05-09T10:02:58.608Z,25.35
2023-05-09T10:03:58.983Z,25.36
2023-05-09T10:04:58.510Z,25.36
2023-05-09T10:05:58.613Z,25.35
2023-05-09T10:06:58.508Z,25.35
2023-05-09T10:07:58.533Z,25.36
2023-05-09T10:08:58.509Z,25.34
2023-05-09T10:09:58.506Z,25.34
2023-05-09T10:10:58.485Z,25.34
2023-05-09T10:11:58.491Z,25.35
2023-05-09T10:12:58.546Z,25.36
2023-05-09T10:13:58.509Z,25.36
2023-05-09T10:14:58.972Z,25.37
2023-05-09T10:15:58.645Z,25.37
2023-05-09T10:16:58.602Z,25.36
2023-05-09T10:17:58.578Z,25.36
2023-05-09T10:18:58.517Z,25.37
2023-05-09T10:19:58.960Z,25.36
2023-05-09T10:20:58.491Z,25.32
2023-05-09T10:21:58.569Z,25.25
2023-05-09T10:22:58.510Z,25.14
2023-05-09T10:23:58.538Z,25.08
2023-05-09T10:24:58.976Z,24.99
2023-05-09T10:25:58.607Z,24.95
2023-05-09T10:26:58.623Z,24.93
2023-05-09T10:27:58.666Z,24.93
2023-05-09T10:28:58.714Z,24.93
2023-05-09T10:29:58.757Z,24.92
2023-05-09T10:30:58.873Z,24.97
2023-05-09T10:31:58.798Z,25.01
2023-05-09T10:32:58.872Z,25.05
2023-05-09T10:33:58.866Z,25.09
2023-05-09T10:34:59.054Z,25.13
2023-05-09T10:35:58.867Z,25.17
2023-05-09T10:36:58.899Z,25.20
2023-05-09T10:37:59.040Z,25.24
2023-05-09T10:38:58.924Z,25.26
2023-05-09T10:39:58.924Z,25.29
2023-05-09T10:40:58.937Z,25.33
2023-05-09T10:41:58.927Z,25.35
2023-05-09T10:42:58.965Z,25.37
2023-05-09T10:43:58.927Z,25.40
2023-05-09T10:44:58.981Z,25.41
2023-05-09T10:45:58.914Z,25.41
2023-05-09T10:46:58.957Z,25.42
2023-05-09T10:47:58.914Z,25.43
2023-05-09T10:48:58.884Z,25.41
2023-05-09T10:49:58.982Z,25.43
2023-05-09T10:50:58.905Z,25.44
2023-05-09T10:51:58.883Z,25.46
2023-05-09T10:52:58.885Z,25.48
2023-05-09T10:53:58.962Z,25.50
2023-05-09T10:54:58.992Z,25.52
2023-05-09T10:55:58.880Z,25.54
2023-05-09T10:56:58.898Z,25.55
2023-05-09T10:57:58.956Z,25.57
2023-05-09T10:58:58.967Z,25.58
2023-05-09T10:59:59.492Z,25.60
2023-05-09T11:00:59.029Z,25.62
2023-05-09T11:01:59.129Z,25.63
2023-05-09T11:02:59.181Z,25.66
2023-05-09T11:03:59.246Z,25.67
2023-05-09T11:04:59.280Z,25.69
2023-05-09T11:05:59.324Z,25.70
2023-05-09T11:06:59.390Z,25.72
2023-05-09T11:07:59.444Z,25.74
2023-05-09T11:08:59.520Z,25.76
2023-05-09T11:09:59.684Z,25.77
2023-05-09T11:10:59.650Z,25.78
2023-05-09T11:11:59.707Z,25.80
2023-05-09T11:12:59.816Z,25.81
2023-05-09T11:13:59.822Z,25.83
2023-05-09T11:14:59.995Z,25.83
2023-05-09T11:15:59.972Z,25.81
2023-05-09T11:16:59.989Z,25.81
2023-05-09T11:18:00.103Z,25.81
2023-05-09T11:19:00.131Z,25.78
2023-05-09T11:20:00.510Z,25.76
2023-05-09T11:21:00.236Z,25.75
2023-05-09T11:22:00.311Z,25.74
2023-05-09T11:23:00.382Z,25.73
2023-05-09T11:24:00.442Z,25.72
2023-05-09T11:25:00.485Z,25.71
2023-05-09T11:26:00.640Z,25.70
2023-05-09T11:27:00.608Z,25.66
